sensor_id;sensor_type;location;lat;lon;timestamp;P1;durP1;ratioP1;P2;durP2;ratioP2
15673;SDS011;7937;48.090;16.212;2022-12-24T00:00:28;1.40;;;1.10;;
15673;SDS011;7937;48.090;16.212;2022-12-24T00:03:31;1.20;;;1.10;;
15673;SDS011;7937;48.090;16.212;2022-12-24T00:06:34;1.60;;;0.60;;
15673;SDS011;7937;48.090;16.212;2022-12-24T00:09:36;2.17;;;0.90;;
15673;SDS011;7937;48.090;16.212;2022-12-24T00:12:38;1.13;;;0.97;;
15673;SDS011;7937;48.090;16.212;2022-12-24T00:15:40;0.77;;;0.60;;
15673;SDS011;7937;48.090;16.212;2022-12-24T00:18:42;1.17;;;0.80;;
15673;SDS011;7937;48.090;16.212;2022-12-24T00:21:47;0.60;;;0.60;;
15673;SDS011;7937;48.090;16.212;2022-12-24T00:24:49;1.00;;;0.70;;
15673;SDS011;7937;48.090;16.212;2022-12-24T00:27:51;1.43;;;0.50;;
15673;SDS011;7937;48.090;16.212;2022-12-24T00:30:53;1.93;;;0.57;;
15673;SDS011;7937;48.090;16.212;2022-12-24T00:33:56;0.43;;;0.43;;
15673;SDS011;7937;48.090;16.212;2022-12-24T00:36:58;0.67;;;0.23;;
15673;SDS011;7937;48.090;16.212;2022-12-24T00:40:00;1.60;;;0.40;;
15673;SDS011;7937;48.090;16.212;2022-12-24T00:43:02;0.53;;;0.40;;
15673;SDS011;7937;48.090;16.212;2022-12-24T00:46:04;1.90;;;0.50;;
15673;SDS011;7937;48.090;16.212;2022-12-24T00:49:06;0.47;;;0.40;;
15673;SDS011;7937;48.090;16.212;2022-12-24T00:52:09;0.97;;;0.47;;
15673;SDS011;7937;48.090;16.212;2022-12-24T00:55:11;1.23;;;0.43;;
15673;SDS011;7937;48.090;16.212;2022-12-24T00:58:13;1.43;;;0.40;;
15673;SDS011;7937;48.090;16.212;2022-12-24T01:01:16;0.30;;;0.30;;
15673;SDS011;7937;48.090;16.212;2022-12-24T01:04:18;0.97;;;0.40;;
15673;SDS011;7937;48.090;16.212;2022-12-24T01:07:40;0.67;;;0.40;;
15673;SDS011;7937;48.090;16.212;2022-12-24T01:10:44;0.20;;;0.20;;
15673;SDS011;7937;48.090;16.212;2022-12-24T01:13:46;1.30;;;0.30;;
15673;SDS011;7937;48.090;16.212;2022-12-24T01:16:49;0.20;;;0.20;;
15673;SDS011;7937;48.090;16.212;2022-12-24T01:19:51;1.60;;;0.30;;
15673;SDS011;7937;48.090;16.212;2022-12-24T01:22:53;0.30;;;0.30;;
15673;SDS011;7937;48.090;16.212;2022-12-24T01:26:00;0.70;;;0.40;;
15673;SDS011;7937;48.090;16.212;2022-12-24T01:29:03;0.40;;;0.20;;
15673;SDS011;7937;48.090;16.212;2022-12-24T01:32:06;0.47;;;0.27;;
15673;SDS011;7937;48.090;16.212;2022-12-24T01:35:08;0.67;;;0.40;;
15673;SDS011;7937;48.090;16.212;2022-12-24T01:38:12;0.30;;;0.30;;
15673;SDS011;7937;48.090;16.212;2022-12-24T01:41:16;1.77;;;0.30;;
15673;SDS011;7937;48.090;16.212;2022-12-24T01:44:41;0.30;;;0.30;;
15673;SDS011;7937;48.090;16.212;2022-12-24T01:47:45;2.50;;;0.50;;
15673;SDS011;7937;48.090;16.212;2022-12-24T01:50:49;0.60;;;0.30;;
15673;SDS011;7937;48.090;16.212;2022-12-24T01:54:02;0.83;;;0.30;;
15673;SDS011;7937;48.090;16.212;2022-12-24T01:57:15;0.10;;;0.10;;
15673;SDS011;7937;48.090;16.212;2022-12-24T02:00:44;0.30;;;0.20;;
15673;SDS011;7937;48.090;16.212;2022-12-24T02:03:46;0.80;;;0.20;;
15673;SDS011;7937;48.090;16.212;2022-12-24T02:06:48;0.53;;;0.20;;
15673;SDS011;7937;48.090;16.212;2022-12-24T02:09:52;0.93;;;0.30;;
15673;SDS011;7937;48.090;16.212;2022-12-24T02:12:57;0.23;;;0.23;;
15673;SDS011;7937;48.090;16.212;2022-12-24T02:16:05;0.50;;;0.20;;
15673;SDS011;7937;48.090;16.212;2022-12-24T02:26:24;1.47;;;0.30;;
15673;SDS011;7937;48.090;16.212;2022-12-24T02:36:11;0.10;;;0.10;;
15673;SDS011;7937;48.090;16.212;2022-12-24T02:39:42;0.30;;;0.30;;
15673;SDS011;7937;48.090;16.212;2022-12-24T02:42:52;0.33;;;0.23;;
15673;SDS011;7937;48.090;16.212;2022-12-24T02:46:00;0.30;;;0.30;;
15673;SDS011;7937;48.090;16.212;2022-12-24T02:49:06;0.20;;;0.20;;
15673;SDS011;7937;48.090;16.212;2022-12-24T02:52:26;0.20;;;0.20;;
15673;SDS011;7937;48.090;16.212;2022-12-24T02:58:50;0.30;;;0.30;;
15673;SDS011;7937;48.090;16.212;2022-12-24T03:05:40;0.23;;;0.20;;
15673;SDS011;7937;48.090;16.212;2022-12-24T03:09:04;0.43;;;0.30;;
15673;SDS011;7937;48.090;16.212;2022-12-24T03:12:12;0.63;;;0.30;;
15673;SDS011;7937;48.090;16.212;2022-12-24T03:15:21;0.50;;;0.30;;
15673;SDS011;7937;48.090;16.212;2022-12-24T03:18:25;0.70;;;0.50;;
15673;SDS011;7937;48.090;16.212;2022-12-24T03:21:33;1.40;;;0.30;;
15673;SDS011;7937;48.090;16.212;2022-12-24T03:24:38;0.90;;;0.50;;
15673;SDS011;7937;48.090;16.212;2022-12-24T03:27:40;1.20;;;0.40;;
15673;SDS011;7937;48.090;16.212;2022-12-24T03:30:45;0.80;;;0.50;;
15673;SDS011;7937;48.090;16.212;2022-12-24T03:33:49;0.30;;;0.30;;
15673;SDS011;7937;48.090;16.212;2022-12-24T03:36:52;1.83;;;0.50;;
15673;SDS011;7937;48.090;16.212;2022-12-24T03:39:54;0.57;;;0.40;;
15673;SDS011;7937;48.090;16.212;2022-12-24T03:42:56;0.60;;;0.30;;
15673;SDS011;7937;48.090;16.212;2022-12-24T03:46:02;0.93;;;0.57;;
15673;SDS011;7937;48.090;16.212;2022-12-24T03:49:06;0.50;;;0.40;;
15673;SDS011;7937;48.090;16.212;2022-12-24T03:52:08;0.40;;;0.40;;
15673;SDS011;7937;48.090;16.212;2022-12-24T03:55:10;1.80;;;0.50;;
15673;SDS011;7937;48.090;16.212;2022-12-24T03:58:12;1.27;;;0.40;;
15673;SDS011;7937;48.090;16.212;2022-12-24T04:01:15;0.33;;;0.33;;
15673;SDS011;7937;48.090;16.212;2022-12-24T04:04:18;2.13;;;0.57;;
15673;SDS011;7937;48.090;16.212;2022-12-24T04:07:20;2.17;;;0.50;;
15673;SDS011;7937;48.090;16.212;2022-12-24T04:10:22;1.13;;;0.50;;
15673;SDS011;7937;48.090;16.212;2022-12-24T04:13:24;1.50;;;0.53;;
15673;SDS011;7937;48.090;16.212;2022-12-24T04:16:26;0.47;;;0.40;;
15673;SDS011;7937;48.090;16.212;2022-12-24T04:19:28;0.30;;;0.23;;
15673;SDS011;7937;48.090;16.212;2022-12-24T04:22:30;0.93;;;0.40;;
15673;SDS011;7937;48.090;16.212;2022-12-24T04:25:33;0.50;;;0.40;;
15673;SDS011;7937;48.090;16.212;2022-12-24T04:28:35;0.80;;;0.43;;
15673;SDS011;7937;48.090;16.212;2022-12-24T04:31:38;2.47;;;0.47;;
15673;SDS011;7937;48.090;16.212;2022-12-24T04:34:40;0.30;;;0.20;;
15673;SDS011;7937;48.090;16.212;2022-12-24T04:37:42;0.40;;;0.40;;
15673;SDS011;7937;48.090;16.212;2022-12-24T04:40:44;0.73;;;0.30;;
15673;SDS011;7937;48.090;16.212;2022-12-24T04:43:46;0.60;;;0.40;;
15673;SDS011;7937;48.090;16.212;2022-12-24T04:46:49;0.47;;;0.30;;
15673;SDS011;7937;48.090;16.212;2022-12-24T04:49:51;0.60;;;0.60;;
15673;SDS011;7937;48.090;16.212;2022-12-24T04:52:53;1.63;;;0.40;;
15673;SDS011;7937;48.090;16.212;2022-12-24T04:55:56;1.40;;;0.50;;
15673;SDS011;7937;48.090;16.212;2022-12-24T04:58:58;1.07;;;0.40;;
15673;SDS011;7937;48.090;16.212;2022-12-24T05:02:01;0.93;;;0.67;;
15673;SDS011;7937;48.090;16.212;2022-12-24T05:05:04;1.50;;;0.30;;
15673;SDS011;7937;48.090;16.212;2022-12-24T05:08:06;1.63;;;0.77;;
15673;SDS011;7937;48.090;16.212;2022-12-24T05:11:11;1.10;;;0.57;;
15673;SDS011;7937;48.090;16.212;2022-12-24T05:14:16;0.60;;;0.50;;
15673;SDS011;7937;48.090;16.212;2022-12-24T05:17:18;2.37;;;0.40;;
15673;SDS011;7937;48.090;16.212;2022-12-24T05:20:20;2.70;;;0.40;;
15673;SDS011;7937;48.090;16.212;2022-12-24T05:23:23;1.27;;;0.50;;
15673;SDS011;7937;48.090;16.212;2022-12-24T05:26:50;2.17;;;0.57;;
15673;SDS011;7937;48.090;16.212;2022-12-24T05:29:54;1.50;;;0.57;;
15673;SDS011;7937;48.090;16.212;2022-12-24T05:32:57;1.57;;;0.93;;
15673;SDS011;7937;48.090;16.212;2022-12-24T05:35:59;5.13;;;0.87;;
15673;SDS011;7937;48.090;16.212;2022-12-24T05:39:01;2.63;;;0.60;;
15673;SDS011;7937;48.090;16.212;2022-12-24T05:42:03;3.60;;;0.60;;
15673;SDS011;7937;48.090;16.212;2022-12-24T05:45:05;1.17;;;0.40;;
15673;SDS011;7937;48.090;16.212;2022-12-24T05:48:08;0.60;;;0.47;;
15673;SDS011;7937;48.090;16.212;2022-12-24T05:51:11;3.47;;;0.70;;
15673;SDS011;7937;48.090;16.212;2022-12-24T05:54:14;0.50;;;0.40;;
15673;SDS011;7937;48.090;16.212;2022-12-24T05:57:16;0.80;;;0.60;;
15673;SDS011;7937;48.090;16.212;2022-12-24T06:00:18;1.30;;;0.63;;
15673;SDS011;7937;48.090;16.212;2022-12-24T06:03:21;0.83;;;0.40;;
15673;SDS011;7937;48.090;16.212;2022-12-24T06:06:25;2.53;;;0.70;;
15673;SDS011;7937;48.090;16.212;2022-12-24T06:09:28;0.73;;;0.50;;
15673;SDS011;7937;48.090;16.212;2022-12-24T06:12:30;2.80;;;0.40;;
15673;SDS011;7937;48.090;16.212;2022-12-24T06:15:34;0.53;;;0.53;;
15673;SDS011;7937;48.090;16.212;2022-12-24T06:18:36;3.87;;;0.57;;
15673;SDS011;7937;48.090;16.212;2022-12-24T06:21:39;1.30;;;0.57;;
15673;SDS011;7937;48.090;16.212;2022-12-24T06:24:41;2.23;;;0.50;;
15673;SDS011;7937;48.090;16.212;2022-12-24T06:27:43;0.70;;;0.40;;
15673;SDS011;7937;48.090;16.212;2022-12-24T06:30:46;2.47;;;0.50;;
15673;SDS011;7937;48.090;16.212;2022-12-24T06:33:49;2.33;;;0.50;;
15673;SDS011;7937;48.090;16.212;2022-12-24T06:36:52;2.20;;;0.40;;
15673;SDS011;7937;48.090;16.212;2022-12-24T06:39:54;2.30;;;0.60;;
15673;SDS011;7937;48.090;16.212;2022-12-24T06:42:56;0.77;;;0.50;;
15673;SDS011;7937;48.090;16.212;2022-12-24T06:45:58;1.60;;;0.43;;
15673;SDS011;7937;48.090;16.212;2022-12-24T06:49:02;2.43;;;0.40;;
15673;SDS011;7937;48.090;16.212;2022-12-24T06:52:04;2.27;;;0.50;;
15673;SDS011;7937;48.090;16.212;2022-12-24T06:55:06;2.30;;;0.63;;
15673;SDS011;7937;48.090;16.212;2022-12-24T06:58:08;4.17;;;0.90;;
15673;SDS011;7937;48.090;16.212;2022-12-24T07:01:12;3.33;;;0.50;;
15673;SDS011;7937;48.090;16.212;2022-12-24T07:04:16;2.80;;;0.67;;
15673;SDS011;7937;48.090;16.212;2022-12-24T07:07:21;1.80;;;0.70;;
15673;SDS011;7937;48.090;16.212;2022-12-24T07:10:23;2.53;;;0.63;;
15673;SDS011;7937;48.090;16.212;2022-12-24T07:13:25;1.73;;;0.70;;
15673;SDS011;7937;48.090;16.212;2022-12-24T07:16:27;2.73;;;0.70;;
15673;SDS011;7937;48.090;16.212;2022-12-24T07:19:29;1.53;;;0.90;;
15673;SDS011;7937;48.090;16.212;2022-12-24T07:22:32;2.53;;;0.60;;
15673;SDS011;7937;48.090;16.212;2022-12-24T07:25:34;2.13;;;0.40;;
15673;SDS011;7937;48.090;16.212;2022-12-24T07:28:36;4.27;;;1.37;;
15673;SDS011;7937;48.090;16.212;2022-12-24T07:31:38;2.40;;;0.80;;
15673;SDS011;7937;48.090;16.212;2022-12-24T07:34:40;2.93;;;1.07;;
15673;SDS011;7937;48.090;16.212;2022-12-24T07:37:42;2.03;;;0.93;;
15673;SDS011;7937;48.090;16.212;2022-12-24T07:40:44;3.53;;;0.73;;
15673;SDS011;7937;48.090;16.212;2022-12-24T07:43:46;1.23;;;0.50;;
15673;SDS011;7937;48.090;16.212;2022-12-24T07:46:48;2.07;;;0.80;;
15673;SDS011;7937;48.090;16.212;2022-12-24T07:49:51;3.63;;;0.70;;
15673;SDS011;7937;48.090;16.212;2022-12-24T07:52:53;2.60;;;0.90;;
15673;SDS011;7937;48.090;16.212;2022-12-24T07:55:55;3.33;;;0.90;;
15673;SDS011;7937;48.090;16.212;2022-12-24T07:58:57;1.53;;;0.70;;
15673;SDS011;7937;48.090;16.212;2022-12-24T08:01:59;2.27;;;0.80;;
15673;SDS011;7937;48.090;16.212;2022-12-24T08:05:02;1.87;;;0.50;;
15673;SDS011;7937;48.090;16.212;2022-12-24T08:08:04;1.10;;;0.63;;
15673;SDS011;7937;48.090;16.212;2022-12-24T08:11:06;1.67;;;0.80;;
15673;SDS011;7937;48.090;16.212;2022-12-24T08:14:08;1.43;;;0.60;;
15673;SDS011;7937;48.090;16.212;2022-12-24T08:17:10;0.80;;;0.67;;
15673;SDS011;7937;48.090;16.212;2022-12-24T08:20:12;1.13;;;0.60;;
15673;SDS011;7937;48.090;16.212;2022-12-24T08:23:17;4.70;;;1.13;;
15673;SDS011;7937;48.090;16.212;2022-12-24T08:26:19;1.67;;;0.60;;
15673;SDS011;7937;48.090;16.212;2022-12-24T08:29:21;1.13;;;0.53;;
15673;SDS011;7937;48.090;16.212;2022-12-24T08:32:23;1.77;;;0.53;;
15673;SDS011;7937;48.090;16.212;2022-12-24T08:35:25;1.43;;;0.60;;
15673;SDS011;7937;48.090;16.212;2022-12-24T08:38:27;2.17;;;0.50;;
15673;SDS011;7937;48.090;16.212;2022-12-24T08:41:30;2.63;;;0.70;;
15673;SDS011;7937;48.090;16.212;2022-12-24T08:44:32;2.33;;;1.03;;
15673;SDS011;7937;48.090;16.212;2022-12-24T08:47:35;1.07;;;0.60;;
15673;SDS011;7937;48.090;16.212;2022-12-24T08:50:38;2.97;;;0.70;;
15673;SDS011;7937;48.090;16.212;2022-12-24T08:53:41;2.27;;;0.73;;
15673;SDS011;7937;48.090;16.212;2022-12-24T08:56:43;1.30;;;0.87;;
15673;SDS011;7937;48.090;16.212;2022-12-24T08:59:45;2.30;;;0.60;;
15673;SDS011;7937;48.090;16.212;2022-12-24T09:02:47;2.53;;;0.90;;
15673;SDS011;7937;48.090;16.212;2022-12-24T09:05:49;3.37;;;0.80;;
15673;SDS011;7937;48.090;16.212;2022-12-24T09:08:51;2.90;;;0.90;;
15673;SDS011;7937;48.090;16.212;2022-12-24T09:11:53;1.87;;;0.90;;
15673;SDS011;7937;48.090;16.212;2022-12-24T09:14:56;1.30;;;0.67;;
15673;SDS011;7937;48.090;16.212;2022-12-24T09:18:04;1.57;;;0.70;;
15673;SDS011;7937;48.090;16.212;2022-12-24T09:21:08;3.63;;;0.90;;
15673;SDS011;7937;48.090;16.212;2022-12-24T09:24:14;2.93;;;1.03;;
15673;SDS011;7937;48.090;16.212;2022-12-24T09:27:16;2.23;;;0.80;;
15673;SDS011;7937;48.090;16.212;2022-12-24T09:30:18;1.17;;;0.73;;
15673;SDS011;7937;48.090;16.212;2022-12-24T09:33:20;2.60;;;0.63;;
15673;SDS011;7937;48.090;16.212;2022-12-24T09:36:23;1.77;;;0.90;;
15673;SDS011;7937;48.090;16.212;2022-12-24T09:39:25;3.77;;;1.10;;
15673;SDS011;7937;48.090;16.212;2022-12-24T09:42:39;2.13;;;0.87;;
15673;SDS011;7937;48.090;16.212;2022-12-24T09:49:27;3.57;;;1.07;;
15673;SDS011;7937;48.090;16.212;2022-12-24T09:52:38;2.87;;;1.10;;
15673;SDS011;7937;48.090;16.212;2022-12-24T09:55:48;2.87;;;0.90;;
15673;SDS011;7937;48.090;16.212;2022-12-24T09:59:01;1.90;;;0.90;;
15673;SDS011;7937;48.090;16.212;2022-12-24T10:02:17;2.23;;;1.00;;
15673;SDS011;7937;48.090;16.212;2022-12-24T10:05:35;5.60;;;1.10;;
15673;SDS011;7937;48.090;16.212;2022-12-24T10:08:55;1.80;;;1.00;;
15673;SDS011;7937;48.090;16.212;2022-12-24T10:15:26;3.27;;;1.13;;
15673;SDS011;7937;48.090;16.212;2022-12-24T10:18:38;3.87;;;1.27;;
15673;SDS011;7937;48.090;16.212;2022-12-24T10:22:18;6.80;;;1.40;;
15673;SDS011;7937;48.090;16.212;2022-12-24T10:28:48;3.80;;;0.97;;
15673;SDS011;7937;48.090;16.212;2022-12-24T10:32:01;4.17;;;1.13;;
15673;SDS011;7937;48.090;16.212;2022-12-24T10:38:17;3.80;;;0.87;;
15673;SDS011;7937;48.090;16.212;2022-12-24T10:41:19;3.77;;;1.10;;
15673;SDS011;7937;48.090;16.212;2022-12-24T10:44:21;3.53;;;1.00;;
15673;SDS011;7937;48.090;16.212;2022-12-24T10:47:28;4.60;;;1.20;;
15673;SDS011;7937;48.090;16.212;2022-12-24T10:50:35;2.67;;;1.40;;
15673;SDS011;7937;48.090;16.212;2022-12-24T10:53:43;5.47;;;1.30;;
15673;SDS011;7937;48.090;16.212;2022-12-24T10:56:58;5.87;;;1.13;;
15673;SDS011;7937;48.090;16.212;2022-12-24T11:00:02;3.77;;;1.23;;
15673;SDS011;7937;48.090;16.212;2022-12-24T11:03:18;3.77;;;1.43;;
15673;SDS011;7937;48.090;16.212;2022-12-24T11:06:24;3.43;;;1.20;;
15673;SDS011;7937;48.090;16.212;2022-12-24T11:09:27;5.63;;;1.33;;
15673;SDS011;7937;48.090;16.212;2022-12-24T11:12:32;3.17;;;1.10;;
15673;SDS011;7937;48.090;16.212;2022-12-24T11:15:38;3.13;;;1.37;;
15673;SDS011;7937;48.090;16.212;2022-12-24T11:18:48;4.63;;;1.20;;
15673;SDS011;7937;48.090;16.212;2022-12-24T11:22:01;3.83;;;1.50;;
15673;SDS011;7937;48.090;16.212;2022-12-24T11:25:10;5.20;;;1.50;;
15673;SDS011;7937;48.090;16.212;2022-12-24T11:28:26;5.60;;;1.30;;
15673;SDS011;7937;48.090;16.212;2022-12-24T11:31:29;7.30;;;1.60;;
15673;SDS011;7937;48.090;16.212;2022-12-24T11:34:33;3.80;;;1.20;;
15673;SDS011;7937;48.090;16.212;2022-12-24T11:37:36;3.87;;;1.50;;
15673;SDS011;7937;48.090;16.212;2022-12-24T11:40:42;4.93;;;1.80;;
15673;SDS011;7937;48.090;16.212;2022-12-24T11:43:46;6.27;;;1.13;;
15673;SDS011;7937;48.090;16.212;2022-12-24T11:46:51;3.57;;;1.60;;
15673;SDS011;7937;48.090;16.212;2022-12-24T11:50:18;3.10;;;1.47;;
15673;SDS011;7937;48.090;16.212;2022-12-24T11:53:22;3.23;;;1.33;;
15673;SDS011;7937;48.090;16.212;2022-12-24T11:56:36;4.97;;;1.63;;
15673;SDS011;7937;48.090;16.212;2022-12-24T11:59:44;3.30;;;1.43;;
15673;SDS011;7937;48.090;16.212;2022-12-24T12:02:49;5.43;;;1.10;;
15673;SDS011;7937;48.090;16.212;2022-12-24T12:05:54;3.73;;;1.27;;
15673;SDS011;7937;48.090;16.212;2022-12-24T12:09:00;3.30;;;1.00;;
15673;SDS011;7937;48.090;16.212;2022-12-24T12:12:09;3.07;;;1.17;;
15673;SDS011;7937;48.090;16.212;2022-12-24T12:15:27;1.53;;;0.90;;
15673;SDS011;7937;48.090;16.212;2022-12-24T12:18:35;2.50;;;1.00;;
15673;SDS011;7937;48.090;16.212;2022-12-24T12:21:43;4.83;;;1.17;;
15673;SDS011;7937;48.090;16.212;2022-12-24T12:24:49;1.97;;;0.70;;
15673;SDS011;7937;48.090;16.212;2022-12-24T12:27:56;2.73;;;0.80;;
15673;SDS011;7937;48.090;16.212;2022-12-24T12:31:02;3.57;;;1.00;;
15673;SDS011;7937;48.090;16.212;2022-12-24T12:34:19;1.43;;;0.50;;
15673;SDS011;7937;48.090;16.212;2022-12-24T12:37:42;0.77;;;0.60;;
15673;SDS011;7937;48.090;16.212;2022-12-24T12:56:46;1.17;;;0.50;;
15673;SDS011;7937;48.090;16.212;2022-12-24T12:59:54;2.27;;;0.57;;
15673;SDS011;7937;48.090;16.212;2022-12-24T13:06:34;0.80;;;0.60;;
15673;SDS011;7937;48.090;16.212;2022-12-24T13:10:22;2.00;;;0.60;;
15673;SDS011;7937;48.090;16.212;2022-12-24T13:20:33;3.43;;;0.87;;
15673;SDS011;7937;48.090;16.212;2022-12-24T13:23:43;1.70;;;0.90;;
15673;SDS011;7937;48.090;16.212;2022-12-24T13:30:37;2.60;;;0.70;;
15673;SDS011;7937;48.090;16.212;2022-12-24T13:37:04;4.97;;;0.73;;
15673;SDS011;7937;48.090;16.212;2022-12-24T13:43:09;1.87;;;1.00;;
15673;SDS011;7937;48.090;16.212;2022-12-24T13:46:13;2.87;;;0.93;;
15673;SDS011;7937;48.090;16.212;2022-12-24T13:49:53;3.27;;;0.80;;
15673;SDS011;7937;48.090;16.212;2022-12-24T13:52:57;4.80;;;1.10;;
15673;SDS011;7937;48.090;16.212;2022-12-24T13:59:25;3.53;;;1.20;;
15673;SDS011;7937;48.090;16.212;2022-12-24T14:02:44;2.27;;;0.60;;
15673;SDS011;7937;48.090;16.212;2022-12-24T14:06:04;2.27;;;0.80;;
15673;SDS011;7937;48.090;16.212;2022-12-24T14:09:11;1.97;;;0.80;;
15673;SDS011;7937;48.090;16.212;2022-12-24T14:12:33;2.03;;;0.80;;
15673;SDS011;7937;48.090;16.212;2022-12-24T14:25:37;2.77;;;0.90;;
15673;SDS011;7937;48.090;16.212;2022-12-24T14:28:49;2.50;;;1.00;;
15673;SDS011;7937;48.090;16.212;2022-12-24T14:31:57;2.93;;;0.90;;
15673;SDS011;7937;48.090;16.212;2022-12-24T14:35:07;3.37;;;1.07;;
15673;SDS011;7937;48.090;16.212;2022-12-24T14:38:19;2.60;;;1.17;;
15673;SDS011;7937;48.090;16.212;2022-12-24T14:45:00;1.20;;;0.80;;
15673;SDS011;7937;48.090;16.212;2022-12-24T14:51:44;2.43;;;1.00;;
15673;SDS011;7937;48.090;16.212;2022-12-24T14:54:51;4.23;;;1.17;;
15673;SDS011;7937;48.090;16.212;2022-12-24T15:01:27;2.43;;;1.10;;
15673;SDS011;7937;48.090;16.212;2022-12-24T15:04:30;4.10;;;1.17;;
15673;SDS011;7937;48.090;16.212;2022-12-24T15:07:32;2.17;;;0.80;;
15673;SDS011;7937;48.090;16.212;2022-12-24T15:10:37;3.93;;;1.30;;
15673;SDS011;7937;48.090;16.212;2022-12-24T15:13:43;2.07;;;0.90;;
15673;SDS011;7937;48.090;16.212;2022-12-24T15:17:05;1.77;;;0.90;;
15673;SDS011;7937;48.090;16.212;2022-12-24T15:20:12;5.40;;;1.43;;
15673;SDS011;7937;48.090;16.212;2022-12-24T15:23:18;3.27;;;1.03;;
15673;SDS011;7937;48.090;16.212;2022-12-24T15:26:27;2.83;;;0.90;;
15673;SDS011;7937;48.090;16.212;2022-12-24T15:29:31;2.77;;;1.07;;
15673;SDS011;7937;48.090;16.212;2022-12-24T15:32:42;5.93;;;1.23;;
15673;SDS011;7937;48.090;16.212;2022-12-24T15:35:50;4.43;;;0.87;;
15673;SDS011;7937;48.090;16.212;2022-12-24T15:38:55;4.00;;;1.30;;
15673;SDS011;7937;48.090;16.212;2022-12-24T15:41:59;1.57;;;1.10;;
15673;SDS011;7937;48.090;16.212;2022-12-24T15:45:20;2.47;;;1.00;;
15673;SDS011;7937;48.090;16.212;2022-12-24T15:48:29;1.53;;;1.10;;
15673;SDS011;7937;48.090;16.212;2022-12-24T15:51:34;2.37;;;1.20;;
15673;SDS011;7937;48.090;16.212;2022-12-24T15:54:44;5.73;;;1.40;;
15673;SDS011;7937;48.090;16.212;2022-12-24T15:57:57;4.77;;;1.23;;
15673;SDS011;7937;48.090;16.212;2022-12-24T16:04:15;2.97;;;0.90;;
15673;SDS011;7937;48.090;16.212;2022-12-24T16:07:23;4.93;;;1.23;;
15673;SDS011;7937;48.090;16.212;2022-12-24T16:10:26;1.60;;;0.83;;
15673;SDS011;7937;48.090;16.212;2022-12-24T16:13:29;4.93;;;1.13;;
15673;SDS011;7937;48.090;16.212;2022-12-24T16:16:34;2.93;;;0.83;;
15673;SDS011;7937;48.090;16.212;2022-12-24T16:19:36;3.60;;;1.30;;
15673;SDS011;7937;48.090;16.212;2022-12-24T16:22:44;1.73;;;0.93;;
15673;SDS011;7937;48.090;16.212;2022-12-24T16:25:46;2.70;;;1.37;;
15673;SDS011;7937;48.090;16.212;2022-12-24T16:28:49;2.13;;;1.27;;
15673;SDS011;7937;48.090;16.212;2022-12-24T16:31:55;2.23;;;1.40;;
15673;SDS011;7937;48.090;16.212;2022-12-24T16:34:59;2.27;;;1.10;;
15673;SDS011;7937;48.090;16.212;2022-12-24T16:38:06;1.70;;;1.00;;
15673;SDS011;7937;48.090;16.212;2022-12-24T16:41:08;3.57;;;1.23;;
15673;SDS011;7937;48.090;16.212;2022-12-24T16:44:10;3.37;;;0.97;;
15673;SDS011;7937;48.090;16.212;2022-12-24T16:47:19;2.70;;;1.40;;
15673;SDS011;7937;48.090;16.212;2022-12-24T16:50:23;2.00;;;1.20;;
15673;SDS011;7937;48.090;16.212;2022-12-24T16:53:25;5.27;;;1.10;;
15673;SDS011;7937;48.090;16.212;2022-12-24T16:56:27;1.73;;;1.10;;
15673;SDS011;7937;48.090;16.212;2022-12-24T16:59:29;4.50;;;1.20;;
15673;SDS011;7937;48.090;16.212;2022-12-24T17:02:33;4.23;;;1.77;;
15673;SDS011;7937;48.090;16.212;2022-12-24T17:05:39;2.70;;;1.00;;
15673;SDS011;7937;48.090;16.212;2022-12-24T17:08:42;3.23;;;1.10;;
15673;SDS011;7937;48.090;16.212;2022-12-24T17:11:44;3.33;;;1.20;;
15673;SDS011;7937;48.090;16.212;2022-12-24T17:14:46;2.20;;;1.27;;
15673;SDS011;7937;48.090;16.212;2022-12-24T17:17:48;2.43;;;1.13;;
15673;SDS011;7937;48.090;16.212;2022-12-24T17:20:57;3.07;;;0.93;;
15673;SDS011;7937;48.090;16.212;2022-12-24T17:24:01;3.23;;;1.17;;
15673;SDS011;7937;48.090;16.212;2022-12-24T17:27:03;3.17;;;1.13;;
15673;SDS011;7937;48.090;16.212;2022-12-24T17:30:06;3.97;;;1.40;;
15673;SDS011;7937;48.090;16.212;2022-12-24T17:33:08;4.17;;;1.23;;
15673;SDS011;7937;48.090;16.212;2022-12-24T17:36:15;5.57;;;1.30;;
15673;SDS011;7937;48.090;16.212;2022-12-24T17:39:18;2.47;;;1.23;;
15673;SDS011;7937;48.090;16.212;2022-12-24T17:42:28;4.30;;;1.40;;
15673;SDS011;7937;48.090;16.212;2022-12-24T17:45:31;3.80;;;1.10;;
15673;SDS011;7937;48.090;16.212;2022-12-24T17:48:33;3.10;;;1.20;;
15673;SDS011;7937;48.090;16.212;2022-12-24T17:51:36;4.70;;;1.00;;
15673;SDS011;7937;48.090;16.212;2022-12-24T17:54:45;3.60;;;1.20;;
15673;SDS011;7937;48.090;16.212;2022-12-24T17:57:47;3.63;;;1.50;;
15673;SDS011;7937;48.090;16.212;2022-12-24T18:00:49;3.97;;;1.60;;
15673;SDS011;7937;48.090;16.212;2022-12-24T18:03:53;1.70;;;1.10;;
15673;SDS011;7937;48.090;16.212;2022-12-24T18:06:55;6.27;;;1.30;;
15673;SDS011;7937;48.090;16.212;2022-12-24T18:10:03;4.77;;;1.60;;
15673;SDS011;7937;48.090;16.212;2022-12-24T18:13:06;3.63;;;1.57;;
15673;SDS011;7937;48.090;16.212;2022-12-24T18:16:17;3.00;;;1.00;;
15673;SDS011;7937;48.090;16.212;2022-12-24T18:19:19;5.13;;;1.50;;
15673;SDS011;7937;48.090;16.212;2022-12-24T18:22:21;4.37;;;1.10;;
15673;SDS011;7937;48.090;16.212;2022-12-24T18:25:23;4.60;;;1.30;;
15673;SDS011;7937;48.090;16.212;2022-12-24T18:28:25;6.13;;;1.40;;
15673;SDS011;7937;48.090;16.212;2022-12-24T18:31:27;8.17;;;1.80;;
15673;SDS011;7937;48.090;16.212;2022-12-24T18:34:30;5.03;;;1.30;;
15673;SDS011;7937;48.090;16.212;2022-12-24T18:37:32;3.83;;;1.43;;
15673;SDS011;7937;48.090;16.212;2022-12-24T18:40:35;4.70;;;1.20;;
15673;SDS011;7937;48.090;16.212;2022-12-24T18:43:37;4.27;;;1.00;;
15673;SDS011;7937;48.090;16.212;2022-12-24T18:46:41;5.00;;;1.20;;
15673;SDS011;7937;48.090;16.212;2022-12-24T18:49:44;6.00;;;1.23;;
15673;SDS011;7937;48.090;16.212;2022-12-24T18:52:48;5.60;;;1.60;;
15673;SDS011;7937;48.090;16.212;2022-12-24T18:55:51;5.33;;;1.20;;
15673;SDS011;7937;48.090;16.212;2022-12-24T18:58:54;5.13;;;1.30;;
15673;SDS011;7937;48.090;16.212;2022-12-24T19:01:58;4.23;;;1.10;;
15673;SDS011;7937;48.090;16.212;2022-12-24T19:05:00;5.87;;;1.10;;
15673;SDS011;7937;48.090;16.212;2022-12-24T19:08:02;5.17;;;1.37;;
15673;SDS011;7937;48.090;16.212;2022-12-24T19:11:25;4.33;;;1.40;;
15673;SDS011;7937;48.090;16.212;2022-12-24T19:14:28;3.67;;;1.30;;
15673;SDS011;7937;48.090;16.212;2022-12-24T19:17:30;2.93;;;1.50;;
15673;SDS011;7937;48.090;16.212;2022-12-24T19:20:35;4.90;;;1.27;;
15673;SDS011;7937;48.090;16.212;2022-12-24T19:23:39;3.23;;;1.10;;
15673;SDS011;7937;48.090;16.212;2022-12-24T19:26:41;5.00;;;1.50;;
15673;SDS011;7937;48.090;16.212;2022-12-24T19:29:43;3.00;;;1.33;;
15673;SDS011;7937;48.090;16.212;2022-12-24T19:32:45;4.27;;;1.37;;
15673;SDS011;7937;48.090;16.212;2022-12-24T19:35:47;3.13;;;1.00;;
15673;SDS011;7937;48.090;16.212;2022-12-24T19:38:49;5.20;;;1.50;;
15673;SDS011;7937;48.090;16.212;2022-12-24T19:41:51;3.13;;;1.30;;
15673;SDS011;7937;48.090;16.212;2022-12-24T19:44:53;3.10;;;1.13;;
15673;SDS011;7937;48.090;16.212;2022-12-24T19:47:55;5.57;;;1.30;;
15673;SDS011;7937;48.090;16.212;2022-12-24T19:51:01;2.73;;;1.23;;
15673;SDS011;7937;48.090;16.212;2022-12-24T19:54:05;3.43;;;1.40;;
15673;SDS011;7937;48.090;16.212;2022-12-24T19:57:17;3.40;;;1.03;;
15673;SDS011;7937;48.090;16.212;2022-12-24T20:00:19;2.87;;;1.30;;
15673;SDS011;7937;48.090;16.212;2022-12-24T20:03:21;6.70;;;1.33;;
15673;SDS011;7937;48.090;16.212;2022-12-24T20:06:25;2.60;;;1.40;;
15673;SDS011;7937;48.090;16.212;2022-12-24T20:09:29;3.17;;;1.20;;
15673;SDS011;7937;48.090;16.212;2022-12-24T20:12:34;4.20;;;1.43;;
15673;SDS011;7937;48.090;16.212;2022-12-24T20:15:36;3.40;;;1.00;;